Terminal Aerodrome Forecast
Issued by NWS

Home | Current Version | Previous Version | Text Only | Print | Product List | Glossary On
Versions: 1 2 3 4 5 6 7 8 9 10 11 12 13 14 15 16 17 18 19 20 21 22 23 24 25 26 27 28 29 30 31 32 33 34 35 36 37 38 39 40 41 42 43 44 45 46
000
FTUS41 KRNK 060144 AAA
TAFLWB
TAF AMD
KLWB 060144Z 0602/0624 09003KT P6SM -SHRA BKN018 OVC050
     FM060400 06003KT 2SM -SHRA BR BKN007 OVC015
     FM060900 00000KT 1/4SM FG OVC001
     FM061400 25003KT 4SM BR OVC015
     FM061900 27004KT P6SM VCSH OVC040=

USA.gov is the U.S. government's official web portal to all federal, state and local government web resources and services.